createdAt,value
2023-09-25T00:01:51.214Z,59.84
2023-09-25T00:04:32.488Z,60.71
2023-09-25T00:07:06.657Z,62.09
2023-09-25T00:09:36.649Z,62.45
2023-09-25T00:12:03.912Z,63.29
2023-09-25T00:14:31.002Z,63.19
2023-09-25T00:16:58.009Z,63.29
2023-09-25T00:19:27.996Z,62.78
2023-09-25T00:22:00.879Z,62.77
2023-09-25T00:24:28.777Z,63.90
2023-09-25T00:26:55.872Z,64.42
2023-09-25T00:29:22.880Z,64.68
2023-09-25T00:31:54.153Z,64.92
2023-09-25T00:34:21.456Z,64.35
2023-09-25T00:36:48.534Z,63.72
2023-09-25T00:39:17.858Z,63.70
2023-09-25T00:41:53.890Z,63.61
2023-09-25T00:44:21.185Z,64.04
2023-09-25T00:46:48.294Z,64.38
2023-09-25T00:49:16.000Z,64.31
2023-09-25T00:51:50.710Z,64.17
2023-09-25T00:54:35.349Z,64.87
2023-09-25T00:57:07.634Z,65.10
2023-09-25T00:59:34.656Z,64.99
2023-09-25T01:02:08.142Z,64.71
2023-09-25T01:04:35.368Z,63.82
2023-09-25T01:07:07.379Z,63.51
2023-09-25T01:09:34.365Z,64.41
2023-09-25T01:12:02.642Z,64.39
2023-09-25T01:14:30.036Z,64.76
2023-09-25T01:17:01.117Z,64.79
2023-09-25T01:19:29.260Z,64.86
2023-09-25T01:21:58.010Z,63.92
2023-09-25T01:24:24.938Z,63.21
2023-09-25T01:26:55.909Z,60.84
2023-09-25T01:29:30.501Z,60.82
2023-09-25T01:31:57.430Z,61.56
2023-09-25T01:34:24.996Z,62.22
2023-09-25T01:36:52.197Z,63.48
2023-09-25T01:39:24.473Z,62.23
2023-09-25T01:41:51.453Z,61.14
2023-09-25T01:44:21.126Z,58.85
2023-09-25T01:46:49.025Z,59.64
2023-09-25T01:49:16.012Z,61.07
2023-09-25T01:52:00.121Z,61.73
2023-09-25T01:54:31.383Z,62.71
2023-09-25T01:56:58.527Z,63.65
2023-09-25T01:59:25.726Z,64.08
2023-09-25T02:01:54.116Z,64.50
2023-09-25T02:04:30.397Z,63.42
2023-09-25T02:06:57.510Z,62.66
2023-09-25T02:09:24.649Z,63.12
2023-09-25T02:11:51.721Z,62.97
2023-09-25T02:14:19.218Z,62.00
2023-09-25T02:16:46.363Z,59.57
2023-09-25T02:19:17.211Z,61.35
2023-09-25T02:21:44.650Z,61.61
2023-09-25T02:24:11.861Z,60.03
2023-09-25T02:26:38.899Z,59.70
2023-09-25T02:29:06.032Z,60.23
2023-09-25T02:31:42.779Z,60.34
2023-09-25T02:34:15.827Z,60.22
2023-09-25T02:36:55.311Z,60.05
2023-09-25T02:39:23.302Z,59.87
2023-09-25T02:41:50.337Z,59.13
2023-09-25T02:44:17.827Z,60.37
2023-09-25T02:46:44.739Z,59.38
2023-09-25T02:49:14.214Z,61.06
2023-09-25T02:51:41.639Z,60.22
2023-09-25T02:54:11.549Z,59.90
2023-09-25T02:56:38.600Z,60.17
2023-09-25T02:59:14.993Z,59.29
2023-09-25T03:01:41.922Z,59.47
2023-09-25T03:04:09.082Z,57.82
2023-09-25T03:06:39.300Z,57.32
2023-09-25T03:09:10.373Z,58.68
2023-09-25T03:11:42.303Z,58.32
2023-09-25T03:14:15.713Z,59.65
2023-09-25T03:16:47.161Z,57.58
2023-09-25T03:19:18.092Z,57.48
2023-09-25T03:21:48.348Z,57.47
2023-09-25T03:24:18.149Z,57.35
2023-09-25T03:26:59.734Z,58.29
2023-09-25T03:29:33.053Z,56.95
2023-09-25T03:32:01.720Z,58.84
2023-09-25T03:34:29.010Z,58.42
2023-09-25T03:36:57.121Z,58.63
2023-09-25T03:39:27.891Z,58.54
2023-09-25T03:41:57.258Z,60.07
2023-09-25T03:44:25.352Z,59.21
2023-09-25T03:46:52.564Z,58.05
2023-09-25T03:49:22.386Z,57.52
2023-09-25T03:51:50.384Z,59.30
2023-09-25T03:54:17.559Z,58.66
2023-09-25T03:56:48.367Z,58.59
2023-09-25T03:59:16.386Z,58.30
2023-09-25T04:01:43.507Z,58.38
2023-09-25T04:04:10.607Z,59.97
2023-09-25T04:06:37.727Z,57.81
2023-09-25T04:09:11.697Z,57.42
2023-09-25T04:11:38.590Z,59.36
2023-09-25T04:14:05.569Z,57.17
2023-09-25T04:16:34.692Z,57.74
2023-09-25T04:19:06.234Z,59.19
2023-09-25T04:21:34.290Z,58.38
2023-09-25T04:24:04.173Z,57.62
2023-09-25T04:26:35.147Z,58.63
2023-09-25T04:29:04.105Z,58.22
2023-09-25T04:31:33.210Z,57.45
2023-09-25T04:34:00.532Z,59.25
2023-09-25T04:36:27.415Z,57.61
2023-09-25T04:38:54.506Z,58.38
2023-09-25T04:41:23.559Z,57.59
2023-09-25T04:43:51.723Z,59.42
2023-09-25T04:46:18.768Z,58.76
2023-09-25T04:48:45.754Z,58.83
2023-09-25T04:51:16.654Z,59.58
2023-09-25T04:53:44.607Z,59.93
2023-09-25T04:56:11.680Z,61.54
2023-09-25T04:58:39.714Z,61.54
2023-09-25T05:01:06.909Z,59.89
2023-09-25T05:03:34.783Z,59.42
2023-09-25T05:06:06.693Z,61.29
2023-09-25T05:08:34.432Z,60.13
2023-09-25T05:11:01.447Z,60.70
2023-09-25T05:13:28.916Z,59.04
2023-09-25T05:15:57.132Z,60.73
2023-09-25T05:18:27.648Z,60.01
2023-09-25T05:20:55.575Z,60.42
2023-09-25T05:23:22.546Z,60.90
2023-09-25T05:25:49.458Z,59.63
2023-09-25T05:28:16.649Z,59.45
2023-09-25T05:30:43.860Z,61.37
2023-09-25T05:33:10.877Z,59.85
2023-09-25T05:35:41.947Z,59.71
2023-09-25T05:38:10.856Z,59.61
2023-09-25T05:40:41.297Z,59.76
2023-09-25T05:43:09.230Z,60.55
2023-09-25T05:45:36.235Z,60.93
2023-09-25T05:48:05.570Z,60.52
2023-09-25T05:50:35.470Z,60.51
2023-09-25T05:53:04.334Z,61.30
2023-09-25T05:55:31.648Z,60.32
2023-09-25T05:57:58.779Z,59.53
2023-09-25T06:00:28.537Z,61.19
2023-09-25T06:02:59.321Z,60.51
2023-09-25T06:05:38.100Z,59.93
2023-09-25T06:08:05.524Z,58.92
2023-09-25T06:10:32.369Z,59.61
2023-09-25T06:12:59.604Z,60.06
2023-09-25T06:15:27.356Z,59.05
2023-09-25T06:17:54.446Z,59.19
2023-09-25T06:20:22.057Z,57.88
2023-09-25T06:22:49.442Z,59.26
2023-09-25T06:25:20.356Z,59.72
2023-09-25T06:27:48.079Z,59.55
2023-09-25T06:30:16.202Z,60.49
2023-09-25T06:32:43.240Z,58.58
2023-09-25T06:35:10.572Z,57.36
2023-09-25T06:37:39.440Z,58.17
2023-09-25T06:40:11.899Z,58.37
2023-09-25T06:42:40.810Z,55.44
2023-09-25T06:45:08.831Z,56.14
2023-09-25T06:47:36.450Z,56.17
2023-09-25T06:50:04.189Z,55.26
2023-09-25T06:52:31.538Z,58.39
2023-09-25T06:54:58.882Z,55.76
2023-09-25T06:57:27.197Z,56.64
2023-09-25T06:59:54.359Z,55.76
2023-09-25T07:02:24.714Z,58.09
2023-09-25T07:04:54.270Z,55.82
2023-09-25T07:07:23.959Z,54.97
2023-09-25T07:09:51.897Z,55.31
2023-09-25T07:12:19.928Z,56.92
2023-09-25T07:14:53.447Z,55.52
2023-09-25T07:17:21.616Z,55.13
2023-09-25T07:19:54.636Z,55.15
2023-09-25T07:22:24.430Z,55.33
2023-09-25T07:24:52.244Z,56.30
2023-09-25T07:27:26.413Z,54.54
2023-09-25T07:29:53.512Z,54.92
2023-09-25T07:32:20.855Z,54.49
2023-09-25T07:34:48.095Z,54.42
2023-09-25T07:37:15.239Z,54.71
2023-09-25T07:39:42.885Z,55.22
2023-09-25T07:42:10.567Z,55.28
2023-09-25T07:44:46.742Z,56.15
2023-09-25T07:47:23.306Z,56.79
2023-09-25T07:49:50.563Z,53.26
2023-09-25T07:52:17.884Z,54.03
2023-09-25T07:54:51.580Z,54.00
2023-09-25T07:57:22.807Z,55.06
2023-09-25T07:59:50.778Z,55.78
2023-09-25T08:02:22.195Z,54.71
2023-09-25T08:04:54.492Z,53.91
2023-09-25T08:07:21.849Z,54.71
2023-09-25T08:09:49.107Z,53.32
2023-09-25T08:12:16.296Z,52.28
2023-09-25T08:14:46.660Z,54.02
2023-09-25T08:17:16.350Z,53.84
2023-09-25T08:19:49.286Z,53.76
2023-09-25T08:22:16.344Z,51.88
2023-09-25T08:24:43.653Z,52.96
2023-09-25T08:27:10.781Z,52.94
2023-09-25T08:29:37.920Z,53.63
2023-09-25T08:32:05.009Z,52.42
2023-09-25T08:34:40.008Z,53.55
2023-09-25T08:37:07.657Z,52.58
2023-09-25T08:39:35.670Z,52.27
2023-09-25T08:42:02.818Z,52.31
2023-09-25T08:44:33.598Z,52.24
2023-09-25T08:47:01.074Z,52.42
2023-09-25T08:49:28.806Z,52.43
2023-09-25T08:51:57.214Z,52.35
2023-09-25T08:54:24.483Z,51.20
2023-09-25T08:56:51.867Z,51.37
2023-09-25T08:59:20.699Z,50.60
2023-09-25T09:01:48.142Z,51.59
2023-09-25T09:04:17.447Z,50.64
2023-09-25T09:06:44.611Z,50.80
2023-09-25T09:09:14.164Z,50.32
2023-09-25T09:11:51.032Z,50.37
2023-09-25T09:14:47.474Z,49.96
2023-09-25T09:17:17.150Z,49.10
2023-09-25T09:19:53.249Z,50.20
2023-09-25T09:22:23.312Z,49.51
2023-09-25T09:24:54.851Z,49.43
2023-09-25T09:27:22.224Z,49.05
2023-09-25T09:29:59.924Z,49.43
2023-09-25T09:32:28.354Z,48.48
2023-09-25T09:34:59.716Z,48.26
2023-09-25T09:37:30.240Z,49.69
2023-09-25T09:39:59.680Z,48.39
2023-09-25T09:42:31.413Z,48.95
2023-09-25T09:44:58.940Z,48.50
2023-09-25T09:47:27.980Z,48.43
2023-09-25T09:49:56.135Z,48.45
2023-09-25T09:52:23.868Z,47.44
2023-09-25T09:54:52.464Z,48.41
2023-09-25T09:57:21.009Z,47.85
2023-09-25T09:59:50.470Z,47.77
2023-09-25T10:02:18.107Z,47.32
2023-09-25T10:04:46.210Z,46.10
2023-09-25T10:07:14.234Z,45.98
2023-09-25T10:10:07.984Z,46.51
2023-09-25T10:12:58.464Z,47.04
2023-09-25T10:15:27.106Z,46.50
2023-09-25T10:17:55.807Z,46.64
2023-09-25T10:23:22.615Z,45.63
2023-09-25T10:26:01.794Z,43.68
2023-09-25T10:28:30.942Z,43.98
2023-09-25T10:30:59.543Z,44.34
2023-09-25T10:33:57.155Z,44.32
2023-09-25T10:36:38.442Z,44.83
2023-09-25T10:39:09.919Z,43.08
2023-09-25T10:41:38.928Z,42.58
2023-09-25T10:44:06.682Z,40.71
2023-09-25T10:46:33.884Z,41.21
2023-09-25T10:49:02.082Z,41.35
2023-09-25T10:51:29.374Z,41.18
2023-09-25T10:53:59.231Z,40.84
2023-09-25T10:56:26.595Z,41.19
2023-09-25T10:58:56.385Z,41.21
2023-09-25T11:01:30.765Z,40.91
2023-09-25T11:04:02.770Z,40.92
2023-09-25T11:06:30.801Z,41.29
2023-09-25T11:09:25.941Z,39.87
2023-09-25T11:11:55.064Z,41.54
2023-09-25T11:14:23.371Z,42.10
2023-09-25T11:16:52.512Z,40.28
2023-09-25T11:19:19.584Z,40.19
2023-09-25T11:21:48.371Z,40.80
2023-09-25T11:24:15.738Z,42.07
2023-09-25T11:26:45.844Z,41.36
2023-09-25T11:29:13.887Z,41.36
2023-09-25T11:32:02.011Z,42.40
2023-09-25T11:34:30.787Z,41.95
2023-09-25T11:37:01.620Z,40.25
2023-09-25T11:39:28.911Z,40.92
2023-09-25T11:41:55.957Z,39.56
2023-09-25T11:44:23.153Z,39.03
2023-09-25T11:46:51.024Z,38.95
2023-09-25T11:49:18.844Z,38.33
2023-09-25T11:51:45.990Z,40.58
2023-09-25T11:54:13.552Z,41.28
2023-09-25T11:56:44.837Z,41.99
2023-09-25T11:59:17.534Z,42.23
2023-09-25T12:01:49.593Z,42.56
2023-09-25T12:04:17.733Z,40.70
2023-09-25T12:06:47.965Z,43.34
2023-09-25T12:09:15.098Z,41.90
2023-09-25T12:11:43.478Z,43.98
2023-09-25T12:14:10.393Z,39.62
2023-09-25T12:16:39.423Z,39.15
2023-09-25T12:19:06.753Z,40.51
2023-09-25T12:21:33.927Z,41.69
2023-09-25T12:24:01.945Z,42.02
2023-09-25T12:26:29.222Z,41.96
2023-09-25T12:28:56.764Z,42.05
2023-09-25T12:31:23.923Z,42.40
2023-09-25T12:33:53.019Z,40.49
2023-09-25T12:36:21.254Z,41.32
2023-09-25T12:38:52.340Z,39.98
2023-09-25T12:41:19.707Z,39.97
2023-09-25T12:43:50.089Z,41.30
2023-09-25T12:46:25.722Z,41.66
2023-09-25T12:48:54.042Z,39.42
2023-09-25T12:51:21.389Z,40.36
2023-09-25T12:53:49.372Z,41.65
2023-09-25T12:56:17.274Z,41.05
2023-09-25T12:58:45.605Z,42.60
2023-09-25T13:01:13.386Z,42.80
2023-09-25T13:03:40.917Z,42.59
2023-09-25T13:06:08.158Z,41.40
2023-09-25T13:08:38.406Z,42.68
2023-09-25T13:11:05.380Z,41.71
2023-09-25T13:13:37.099Z,42.06
2023-09-25T13:16:04.353Z,40.88
2023-09-25T13:18:31.565Z,40.61
2023-09-25T13:20:59.012Z,42.17
2023-09-25T13:23:26.421Z,40.78
2023-09-25T13:25:53.644Z,41.16
2023-09-25T13:28:20.836Z,41.91
2023-09-25T13:30:48.752Z,41.98
2023-09-25T13:33:15.836Z,42.00
2023-09-25T13:35:45.884Z,42.00
2023-09-25T13:38:13.102Z,42.59
2023-09-25T13:40:40.296Z,41.76
2023-09-25T13:43:07.587Z,41.39
2023-09-25T13:45:35.094Z,42.31
2023-09-25T13:48:02.247Z,42.09
2023-09-25T13:50:29.393Z,42.33
2023-09-25T13:52:59.884Z,42.58
2023-09-25T13:55:29.414Z,43.44
2023-09-25T13:57:59.193Z,43.27
2023-09-25T14:00:26.552Z,42.13
2023-09-25T14:02:55.108Z,42.21
2023-09-25T14:05:23.885Z,42.27
2023-09-25T14:07:51.245Z,42.31
2023-09-25T14:10:18.415Z,43.67
2023-09-25T14:12:46.942Z,42.62
2023-09-25T14:15:15.675Z,42.97
2023-09-25T14:17:47.299Z,43.42
2023-09-25T14:20:14.660Z,43.18
2023-09-25T14:22:41.777Z,43.77
2023-09-25T14:25:09.691Z,43.16
2023-09-25T14:27:36.995Z,43.58
2023-09-25T14:30:04.828Z,43.98
2023-09-25T14:32:35.332Z,43.36
2023-09-25T14:35:02.409Z,44.17
2023-09-25T14:37:29.668Z,42.48
2023-09-25T14:39:57.445Z,43.04
2023-09-25T14:42:24.852Z,43.52
2023-09-25T14:44:55.029Z,43.65
2023-09-25T14:47:22.940Z,44.62
2023-09-25T14:49:53.929Z,43.52
2023-09-25T14:52:23.754Z,43.56
2023-09-25T14:54:51.365Z,43.79
2023-09-25T14:57:18.901Z,44.09
2023-09-25T14:59:45.927Z,44.15
2023-09-25T15:02:14.518Z,42.66
2023-09-25T15:04:43.306Z,44.39
2023-09-25T15:07:10.462Z,43.76
2023-09-25T15:09:39.080Z,44.49
2023-09-25T15:12:08.200Z,44.57
2023-09-25T15:14:43.130Z,44.21
2023-09-25T15:17:13.700Z,44.42
2023-09-25T15:19:41.964Z,45.10
2023-09-25T15:22:09.289Z,45.21
2023-09-25T15:24:36.518Z,44.65
2023-09-25T15:27:05.127Z,45.14
2023-09-25T15:29:32.682Z,44.50
2023-09-25T15:32:03.668Z,44.17
2023-09-25T15:34:31.638Z,44.85
2023-09-25T15:36:59.323Z,44.99
2023-09-25T15:39:27.955Z,44.45
2023-09-25T15:41:55.147Z,43.93
2023-09-25T15:44:23.656Z,44.29
2023-09-25T15:46:54.139Z,44.74
2023-09-25T15:49:22.822Z,43.10
2023-09-25T15:51:50.067Z,42.74
2023-09-25T15:54:17.097Z,44.18
2023-09-25T15:56:44.176Z,45.33
2023-09-25T15:59:14.841Z,45.51
2023-09-25T16:01:42.338Z,46.19
2023-09-25T16:04:17.012Z,45.84
2023-09-25T16:06:48.655Z,45.39
2023-09-25T16:09:15.810Z,46.34
2023-09-25T16:11:42.792Z,44.62
2023-09-25T16:14:10.031Z,45.06
2023-09-25T16:16:40.354Z,44.73
2023-09-25T16:19:11.310Z,44.35
2023-09-25T16:21:41.590Z,42.38
2023-09-25T16:24:08.901Z,44.89
2023-09-25T16:26:36.042Z,44.40
2023-09-25T16:29:04.637Z,45.92
2023-09-25T16:31:31.593Z,45.30
2023-09-25T16:33:58.802Z,46.41
2023-09-25T16:36:25.899Z,47.00
2023-09-25T16:38:52.870Z,45.92
2023-09-25T16:41:21.191Z,45.50
2023-09-25T16:43:48.590Z,44.94
2023-09-25T16:46:18.775Z,45.05
2023-09-25T16:48:45.858Z,45.09
2023-09-25T16:51:15.598Z,46.62
2023-09-25T16:53:43.865Z,46.25
2023-09-25T16:56:14.239Z,46.89
2023-09-25T16:58:41.635Z,47.22
2023-09-25T17:03:41.538Z,47.38
2023-09-25T17:06:10.888Z,46.75
2023-09-25T17:08:38.361Z,47.13
2023-09-25T17:11:07.653Z,47.15
2023-09-25T17:13:34.711Z,46.97
2023-09-25T17:16:08.323Z,46.99
2023-09-25T17:18:35.590Z,47.23
2023-09-25T17:21:03.104Z,47.53
2023-09-25T17:23:30.454Z,47.54
2023-09-25T17:25:57.607Z,47.45
2023-09-25T17:28:24.962Z,47.84
2023-09-25T17:31:08.539Z,48.29
2023-09-25T17:33:36.513Z,48.02
2023-09-25T17:38:35.616Z,48.86
2023-09-25T17:41:05.603Z,50.32
2023-09-25T17:43:32.621Z,48.52
2023-09-25T17:46:04.132Z,49.64
2023-09-25T17:48:32.923Z,49.71
2023-09-25T17:51:05.324Z,49.49
2023-09-25T17:53:37.010Z,49.78
2023-09-25T17:56:05.470Z,50.18
2023-09-25T17:58:34.857Z,50.39
2023-09-25T18:01:02.685Z,50.80
2023-09-25T18:03:30.681Z,50.94
2023-09-25T18:05:58.106Z,51.37
2023-09-25T18:08:30.732Z,51.21
2023-09-25T18:10:58.504Z,50.24
2023-09-25T18:13:31.029Z,50.92
2023-09-25T18:16:01.031Z,51.00
2023-09-25T18:18:28.123Z,51.17
2023-09-25T18:20:57.536Z,51.51
2023-09-25T18:23:25.193Z,51.56
2023-09-25T18:25:55.189Z,52.23
2023-09-25T18:28:26.868Z,52.48
2023-09-25T18:30:57.590Z,52.55
2023-09-25T18:33:24.674Z,52.88
2023-09-25T18:35:51.707Z,52.62
2023-09-25T18:38:18.750Z,52.92
2023-09-25T18:40:45.901Z,53.55
2023-09-25T18:43:12.879Z,53.54
2023-09-25T18:45:40.030Z,53.37
2023-09-25T18:48:10.628Z,54.17
2023-09-25T18:50:43.123Z,53.93
2023-09-25T18:53:11.090Z,54.20
2023-09-25T18:55:45.771Z,54.57
2023-09-25T18:58:14.428Z,54.76
2023-09-25T19:00:50.382Z,55.21
2023-09-25T19:03:21.290Z,54.90
2023-09-25T19:05:55.607Z,55.26
2023-09-25T19:08:30.671Z,55.40
2023-09-25T19:13:51.891Z,56.52
2023-09-25T19:16:19.059Z,56.50
2023-09-25T19:18:46.310Z,56.01
2023-09-25T19:21:17.219Z,55.94
2023-09-25T19:23:52.985Z,56.00
2023-09-25T19:26:20.125Z,56.11
2023-09-25T19:28:47.246Z,55.88
2023-09-25T19:31:36.805Z,56.62
2023-09-25T19:34:03.603Z,56.64
2023-09-25T19:36:30.846Z,55.68
2023-09-25T19:39:00.347Z,55.79
2023-09-25T19:41:32.232Z,56.38
2023-09-25T19:43:59.554Z,55.25
2023-09-25T19:46:27.005Z,54.03
2023-09-25T19:48:54.359Z,55.24
2023-09-25T19:51:22.527Z,54.89
2023-09-25T19:53:51.877Z,54.69
2023-09-25T19:56:19.091Z,55.29
2023-09-25T19:58:46.086Z,54.53
2023-09-25T20:01:14.542Z,55.20
2023-09-25T20:03:43.588Z,55.87
2023-09-25T20:06:14.664Z,56.06
2023-09-25T20:08:42.156Z,56.21
2023-09-25T20:11:11.501Z,56.12
2023-09-25T20:14:00.015Z,55.71
2023-09-25T20:16:27.339Z,55.29
2023-09-25T20:18:54.623Z,55.70
2023-09-25T20:21:26.781Z,55.25
2023-09-25T20:23:56.548Z,54.70
2023-09-25T20:26:26.916Z,54.91
2023-09-25T20:28:54.175Z,54.84
2023-09-25T20:31:23.048Z,54.12
2023-09-25T20:33:57.601Z,53.88
2023-09-25T20:36:25.204Z,53.06
2023-09-25T20:38:53.608Z,51.93
2023-09-25T20:41:27.306Z,52.29
2023-09-25T20:43:54.573Z,51.74
2023-09-25T20:46:23.169Z,52.70
2023-09-25T20:48:54.138Z,52.89
2023-09-25T20:51:37.152Z,52.40
2023-09-25T20:54:04.711Z,50.78
2023-09-25T20:56:31.672Z,51.58
2023-09-25T20:59:01.881Z,51.82
2023-09-25T21:01:29.629Z,51.79
2023-09-25T21:03:56.931Z,50.34
2023-09-25T21:06:24.170Z,50.53
2023-09-25T21:08:53.450Z,50.13
2023-09-25T21:11:28.357Z,49.95
2023-09-25T21:14:05.232Z,49.76
2023-09-25T21:16:37.915Z,50.68
2023-09-25T21:19:05.557Z,51.10
2023-09-25T21:21:32.625Z,51.57
2023-09-25T21:24:03.954Z,51.91
2023-09-25T21:26:35.289Z,50.73
2023-09-25T21:29:04.464Z,52.10
2023-09-25T21:31:33.553Z,50.69
2023-09-25T21:34:05.660Z,51.47
2023-09-25T21:36:32.767Z,51.56
2023-09-25T21:39:00.016Z,51.84
2023-09-25T21:41:27.037Z,51.77
2023-09-25T21:43:54.236Z,50.84
2023-09-25T21:46:22.867Z,51.13
2023-09-25T21:48:50.271Z,50.29
2023-09-25T21:51:17.891Z,50.10
2023-09-25T21:53:45.049Z,51.12
2023-09-25T21:56:14.579Z,50.62
2023-09-25T21:58:45.579Z,50.93
2023-09-25T22:01:12.884Z,50.41
2023-09-25T22:03:42.511Z,50.69
2023-09-25T22:06:09.818Z,51.18
2023-09-25T22:08:37.157Z,50.73
2023-09-25T22:11:07.577Z,49.95
2023-09-25T22:13:38.324Z,51.19
2023-09-25T22:16:09.859Z,50.23
2023-09-25T22:18:40.805Z,51.86
2023-09-25T22:21:12.947Z,50.23
2023-09-25T22:23:40.519Z,50.31
2023-09-25T22:26:08.765Z,51.98
2023-09-25T22:28:37.014Z,51.15
2023-09-25T22:31:05.994Z,50.45
2023-09-25T22:33:34.379Z,51.27
2023-09-25T22:36:01.450Z,51.77
2023-09-25T22:38:28.676Z,52.05
2023-09-25T22:40:56.135Z,50.87
2023-09-25T22:43:23.178Z,50.45
2023-09-25T22:45:52.831Z,50.97
2023-09-25T22:48:19.965Z,50.17
2023-09-25T22:50:47.355Z,50.81
2023-09-25T22:53:14.711Z,49.56
2023-09-25T22:55:43.926Z,51.15
2023-09-25T22:58:11.131Z,50.79
2023-09-25T23:00:39.016Z,50.92
2023-09-25T23:03:06.601Z,50.67
2023-09-25T23:05:34.413Z,50.28
2023-09-25T23:08:01.485Z,50.88
2023-09-25T23:10:35.090Z,50.23
2023-09-25T23:13:02.309Z,51.09
2023-09-25T23:15:29.253Z,50.87
2023-09-25T23:17:56.452Z,50.86
2023-09-25T23:20:26.533Z,50.00
2023-09-25T23:22:57.866Z,50.28
2023-09-25T23:25:26.606Z,50.27
2023-09-25T23:27:54.376Z,50.09
2023-09-25T23:30:23.633Z,51.02
2023-09-25T23:32:59.122Z,50.45
2023-09-25T23:35:32.143Z,50.25
2023-09-25T23:37:59.716Z,51.66
2023-09-25T23:40:26.820Z,50.58
2023-09-25T23:42:55.143Z,51.18
2023-09-25T23:45:24.065Z,50.43
2023-09-25T23:47:51.616Z,49.75
2023-09-25T23:50:21.158Z,50.48
2023-09-25T23:52:49.477Z,50.09
2023-09-25T23:55:16.681Z,50.72
2023-09-25T23:57:46.727Z,50.98
